sensor_id;sensor_type;location;lat;lon;timestamp;pressure;altitude;pressure_sealevel;temperature;humidity
21547;BME280;41275;51.912;4.388;2022-10-04T00:01:07;102322.19;;;19.85;50.97
21547;BME280;41275;51.912;4.388;2022-10-04T00:06:31;102323.69;;;19.76;51.08
21547;BME280;41275;51.912;4.388;2022-10-04T00:11:53;102317.16;;;19.67;51.36
21547;BME280;41275;51.912;4.388;2022-10-04T00:17:22;102315.22;;;19.62;51.35
21547;BME280;41275;51.912;4.388;2022-10-04T00:28:45;102296.22;;;19.47;51.80
21547;BME280;41275;51.912;4.388;2022-10-04T00:45:02;102303.25;;;19.31;51.97
21547;BME280;41275;51.912;4.388;2022-10-04T00:50:40;102299.38;;;19.22;52.39
21547;BME280;41275;51.912;4.388;2022-10-04T00:56:19;102305.25;;;19.19;52.13
21547;BME280;41275;51.912;4.388;2022-10-04T01:01:43;102306.22;;;19.12;52.41
21547;BME280;41275;51.912;4.388;2022-10-04T01:07:08;102297.53;;;19.05;52.50
21547;BME280;41275;51.912;4.388;2022-10-04T01:12:41;102280.06;;;19.03;52.88
21547;BME280;41275;51.912;4.388;2022-10-04T01:23:42;102272.03;;;18.86;53.04
21547;BME280;41275;51.912;4.388;2022-10-04T01:29:06;102270.09;;;18.81;53.37
21547;BME280;41275;51.912;4.388;2022-10-04T01:34:29;102255.00;;;18.75;53.46
21547;BME280;41275;51.912;4.388;2022-10-04T01:39:50;102238.47;;;18.67;53.69
21547;BME280;41275;51.912;4.388;2022-10-04T01:45:59;102225.81;;;18.62;53.88
21547;BME280;41275;51.912;4.388;2022-10-04T01:51:04;102205.16;;;18.62;54.16
21547;BME280;41275;51.912;4.388;2022-10-04T01:56:39;102208.75;;;18.68;54.13
21547;BME280;41275;51.912;4.388;2022-10-04T02:02:06;102187.31;;;18.68;54.02
21547;BME280;41275;51.912;4.388;2022-10-04T02:07:31;102192.59;;;18.63;54.15
21547;BME280;41275;51.912;4.388;2022-10-04T02:12:54;102162.16;;;18.52;54.41
21547;BME280;41275;51.912;4.388;2022-10-04T02:18:19;102160.13;;;18.43;54.49
21547;BME280;41275;51.912;4.388;2022-10-04T02:23:41;102146.81;;;18.31;54.81
21547;BME280;41275;51.912;4.388;2022-10-04T02:29:04;102129.88;;;18.25;54.85
21547;BME280;41275;51.912;4.388;2022-10-04T02:34:25;102130.59;;;18.21;54.93
21547;BME280;41275;51.912;4.388;2022-10-04T02:39:50;102120.31;;;18.12;55.32
21547;BME280;41275;51.912;4.388;2022-10-04T02:45:28;102114.94;;;18.12;55.33
21547;BME280;41275;51.912;4.388;2022-10-04T02:50:54;102094.25;;;18.08;55.32
21547;BME280;41275;51.912;4.388;2022-10-04T02:56:19;102091.47;;;18.03;55.40
21547;BME280;41275;51.912;4.388;2022-10-04T03:01:55;102109.09;;;17.99;55.75
21547;BME280;41275;51.912;4.388;2022-10-04T03:07:18;102105.28;;;17.95;55.36
21547;BME280;41275;51.912;4.388;2022-10-04T03:12:41;102107.41;;;17.93;55.66
21547;BME280;41275;51.912;4.388;2022-10-04T03:18:02;102094.50;;;17.89;55.50
21547;BME280;41275;51.912;4.388;2022-10-04T03:23:24;102083.78;;;17.89;55.37
21547;BME280;41275;51.912;4.388;2022-10-04T03:28:45;102075.69;;;17.84;55.56
21547;BME280;41275;51.912;4.388;2022-10-04T03:34:13;102062.53;;;17.83;55.72
21547;BME280;41275;51.912;4.388;2022-10-04T03:39:44;102051.88;;;17.88;55.31
21547;BME280;41275;51.912;4.388;2022-10-04T03:45:10;102061.69;;;17.99;55.51
21547;BME280;41275;51.912;4.388;2022-10-04T03:50:43;102050.00;;;18.05;55.00
21547;BME280;41275;51.912;4.388;2022-10-04T03:56:30;102048.06;;;18.01;54.83
21547;BME280;41275;51.912;4.388;2022-10-04T04:02:04;102048.41;;;17.87;54.58
21547;BME280;41275;51.912;4.388;2022-10-04T04:07:42;102057.09;;;17.78;54.94
21547;BME280;41275;51.912;4.388;2022-10-04T04:18:36;102055.44;;;17.60;54.87
21547;BME280;41275;51.912;4.388;2022-10-04T04:24:02;102060.78;;;17.60;54.66
21547;BME280;41275;51.912;4.388;2022-10-04T04:29:31;102065.34;;;17.59;54.60
21547;BME280;41275;51.912;4.388;2022-10-04T04:35:01;102053.81;;;17.59;54.61
21547;BME280;41275;51.912;4.388;2022-10-04T04:40:30;102064.28;;;17.60;54.63
21547;BME280;41275;51.912;4.388;2022-10-04T04:45:51;102058.84;;;17.55;54.71
21547;BME280;41275;51.912;4.388;2022-10-04T04:51:21;102063.72;;;17.58;55.00
21547;BME280;41275;51.912;4.388;2022-10-04T04:56:43;102051.56;;;17.51;54.62
21547;BME280;41275;51.912;4.388;2022-10-04T05:02:32;102055.78;;;17.47;55.03
21547;BME280;41275;51.912;4.388;2022-10-04T05:14:14;102064.19;;;17.38;55.31
21547;BME280;41275;51.912;4.388;2022-10-04T05:19:38;102059.56;;;17.34;55.31
21547;BME280;41275;51.912;4.388;2022-10-04T05:25:02;102039.72;;;17.30;55.45
21547;BME280;41275;51.912;4.388;2022-10-04T05:42:24;102028.47;;;17.16;55.68
21547;BME280;41275;51.912;4.388;2022-10-04T05:47:50;102034.56;;;17.11;56.17
21547;BME280;41275;51.912;4.388;2022-10-04T05:53:33;102024.59;;;17.07;55.98
21547;BME280;41275;51.912;4.388;2022-10-04T06:05:08;102022.53;;;16.97;55.84
21547;BME280;41275;51.912;4.388;2022-10-04T06:22:17;102018.22;;;16.96;56.37
21547;BME280;41275;51.912;4.388;2022-10-04T06:27:45;102017.44;;;16.96;56.33
21547;BME280;41275;51.912;4.388;2022-10-04T06:33:31;102011.81;;;16.97;56.61
21547;BME280;41275;51.912;4.388;2022-10-04T06:44:58;102011.06;;;17.13;56.55
21547;BME280;41275;51.912;4.388;2022-10-04T06:50:39;102009.22;;;17.31;56.30
21547;BME280;41275;51.912;4.388;2022-10-04T06:56:37;102005.66;;;17.42;55.95
21547;BME280;41275;51.912;4.388;2022-10-04T07:02:30;102007.25;;;17.60;55.73
21547;BME280;41275;51.912;4.388;2022-10-04T07:08:30;102007.63;;;17.80;55.54
21547;BME280;41275;51.912;4.388;2022-10-04T07:13:58;102023.97;;;18.01;55.59
21547;BME280;41275;51.912;4.388;2022-10-04T07:25:33;102023.06;;;18.56;54.48
21547;BME280;41275;51.912;4.388;2022-10-04T07:36:44;102010.84;;;18.87;52.89
21547;BME280;41275;51.912;4.388;2022-10-04T07:42:54;102016.19;;;18.87;53.02
21547;BME280;41275;51.912;4.388;2022-10-04T07:48:14;102024.16;;;18.82;52.58
21547;BME280;41275;51.912;4.388;2022-10-04T07:53:40;102032.97;;;18.77;52.80
21547;BME280;41275;51.912;4.388;2022-10-04T08:10:45;102036.59;;;19.15;52.76
21547;BME280;41275;51.912;4.388;2022-10-04T08:16:43;102027.31;;;19.28;52.27
21547;BME280;41275;51.912;4.388;2022-10-04T08:39:05;102010.41;;;20.07;50.59
21547;BME280;41275;51.912;4.388;2022-10-04T08:51:05;102011.63;;;20.37;49.85
21547;BME280;41275;51.912;4.388;2022-10-04T09:02:15;102023.59;;;20.66;49.13
21547;BME280;41275;51.912;4.388;2022-10-04T09:08:10;102026.03;;;20.78;48.84
21547;BME280;41275;51.912;4.388;2022-10-04T09:14:03;102017.47;;;20.91;48.62
21547;BME280;41275;51.912;4.388;2022-10-04T09:19:54;102004.03;;;21.12;48.56
21547;BME280;41275;51.912;4.388;2022-10-04T09:31:24;101995.41;;;21.61;47.68
21547;BME280;41275;51.912;4.388;2022-10-04T09:36:54;101976.56;;;21.61;47.63
21547;BME280;41275;51.912;4.388;2022-10-04T09:42:41;101972.81;;;21.36;47.43
21547;BME280;41275;51.912;4.388;2022-10-04T09:48:28;101980.88;;;21.41;47.65
21547;BME280;41275;51.912;4.388;2022-10-04T10:17:02;101993.66;;;22.70;45.05
21547;BME280;41275;51.912;4.388;2022-10-04T10:34:12;101966.47;;;23.35;43.21
21547;BME280;41275;51.912;4.388;2022-10-04T10:39:55;101964.84;;;23.34;43.59
21547;BME280;41275;51.912;4.388;2022-10-04T10:45:45;101975.00;;;23.47;43.38
21547;BME280;41275;51.912;4.388;2022-10-04T10:51:12;101973.22;;;23.67;42.70
21547;BME280;41275;51.912;4.388;2022-10-04T11:03:18;101987.41;;;24.82;41.00
21547;BME280;41275;51.912;4.388;2022-10-04T11:14:39;101983.25;;;24.71;40.43
21547;BME280;41275;51.912;4.388;2022-10-04T11:20:14;101994.88;;;24.71;40.58
21547;BME280;41275;51.912;4.388;2022-10-04T11:38:02;101966.91;;;24.19;41.23
21547;BME280;41275;51.912;4.388;2022-10-04T12:18:34;101928.75;;;26.71;38.13
21547;BME280;41275;51.912;4.388;2022-10-04T12:52:54;101874.19;;;30.18;32.43
21547;BME280;41275;51.912;4.388;2022-10-04T13:09:48;101873.00;;;30.73;30.92
21547;BME280;41275;51.912;4.388;2022-10-04T13:21:03;101843.59;;;31.64;30.49
21547;BME280;41275;51.912;4.388;2022-10-04T13:26:29;101838.38;;;31.35;30.33
21547;BME280;41275;51.912;4.388;2022-10-04T13:32:12;101822.97;;;31.54;29.98
21547;BME280;41275;51.912;4.388;2022-10-04T13:49:12;101789.25;;;31.38;30.99
21547;BME280;41275;51.912;4.388;2022-10-04T14:06:57;101800.00;;;30.49;30.91
21547;BME280;41275;51.912;4.388;2022-10-04T14:12:45;101795.16;;;29.38;32.73
21547;BME280;41275;51.912;4.388;2022-10-04T14:18:47;101806.91;;;28.44;34.19
21547;BME280;41275;51.912;4.388;2022-10-04T14:35:34;101804.66;;;26.49;37.68
21547;BME280;41275;51.912;4.388;2022-10-04T14:47:03;101799.97;;;26.40;38.83
21547;BME280;41275;51.912;4.388;2022-10-04T15:04:22;101781.06;;;26.27;39.54
21547;BME280;41275;51.912;4.388;2022-10-04T15:09:56;101800.88;;;26.50;39.27
21547;BME280;41275;51.912;4.388;2022-10-04T15:15:50;101789.44;;;26.39;39.48
21547;BME280;41275;51.912;4.388;2022-10-04T15:32:43;101784.03;;;25.80;40.17
21547;BME280;41275;51.912;4.388;2022-10-04T15:49:56;101782.91;;;25.17;41.85
21547;BME280;41275;51.912;4.388;2022-10-04T15:55:22;101779.09;;;25.05;42.12
21547;BME280;41275;51.912;4.388;2022-10-04T16:01:10;101781.78;;;25.05;42.21
21547;BME280;41275;51.912;4.388;2022-10-04T16:06:50;101799.94;;;25.04;42.27
21547;BME280;41275;51.912;4.388;2022-10-04T16:12:19;101788.41;;;24.98;42.48
21547;BME280;41275;51.912;4.388;2022-10-04T16:23:44;101800.50;;;24.87;42.87
21547;BME280;41275;51.912;4.388;2022-10-04T16:34:56;101791.00;;;24.76;43.12
21547;BME280;41275;51.912;4.388;2022-10-04T16:40:36;101793.19;;;24.74;43.41
21547;BME280;41275;51.912;4.388;2022-10-04T16:46:17;101785.25;;;24.64;43.41
21547;BME280;41275;51.912;4.388;2022-10-04T16:52:22;101806.09;;;24.63;43.97
21547;BME280;41275;51.912;4.388;2022-10-04T16:57:36;101788.81;;;24.45;44.16
21547;BME280;41275;51.912;4.388;2022-10-04T17:03:13;101806.75;;;24.41;44.31
21547;BME280;41275;51.912;4.388;2022-10-04T17:08:53;101799.50;;;24.37;44.50
21547;BME280;41275;51.912;4.388;2022-10-04T17:14:54;101795.16;;;24.36;44.72
21547;BME280;41275;51.912;4.388;2022-10-04T17:37:49;101793.94;;;24.28;45.46
21547;BME280;41275;51.912;4.388;2022-10-04T17:43:42;101801.66;;;24.21;45.65
21547;BME280;41275;51.912;4.388;2022-10-04T17:49:19;101804.03;;;24.22;45.58
21547;BME280;41275;51.912;4.388;2022-10-04T17:55:11;101775.75;;;24.15;45.90
21547;BME280;41275;51.912;4.388;2022-10-04T18:01:05;101791.91;;;24.20;45.64
21547;BME280;41275;51.912;4.388;2022-10-04T18:06:42;101783.06;;;24.14;46.03
21547;BME280;41275;51.912;4.388;2022-10-04T18:12:39;101787.97;;;24.12;45.54
21547;BME280;41275;51.912;4.388;2022-10-04T18:23:33;101797.19;;;24.11;45.39
21547;BME280;41275;51.912;4.388;2022-10-04T18:28:58;101811.72;;;24.15;45.69
21547;BME280;41275;51.912;4.388;2022-10-04T18:34:29;101809.31;;;24.14;45.52
21547;BME280;41275;51.912;4.388;2022-10-04T18:39:52;101782.06;;;24.10;45.61
21547;BME280;41275;51.912;4.388;2022-10-04T18:45:27;101769.13;;;24.07;46.04
21547;BME280;41275;51.912;4.388;2022-10-04T18:50:49;101764.16;;;24.14;45.90
21547;BME280;41275;51.912;4.388;2022-10-04T18:56:11;101764.06;;;24.00;45.83
21547;BME280;41275;51.912;4.388;2022-10-04T19:18:47;101734.22;;;23.73;45.75
21547;BME280;41275;51.912;4.388;2022-10-04T19:41:53;101732.22;;;23.60;45.11
21547;BME280;41275;51.912;4.388;2022-10-04T19:52:55;101745.75;;;23.60;44.41
21547;BME280;41275;51.912;4.388;2022-10-04T20:03:47;101749.91;;;23.52;43.99
21547;BME280;41275;51.912;4.388;2022-10-04T20:26:36;101757.28;;;23.46;44.52
21547;BME280;41275;51.912;4.388;2022-10-04T20:48:42;101763.72;;;23.50;43.81
21547;BME280;41275;51.912;4.388;2022-10-04T20:54:13;101756.91;;;23.53;43.62
21547;BME280;41275;51.912;4.388;2022-10-04T20:59:35;101756.19;;;23.47;43.74
21547;BME280;41275;51.912;4.388;2022-10-04T21:05:14;101759.38;;;23.49;43.80
21547;BME280;41275;51.912;4.388;2022-10-04T21:10:35;101760.03;;;23.41;43.88
21547;BME280;41275;51.912;4.388;2022-10-04T21:15:57;101760.59;;;23.38;43.97
21547;BME280;41275;51.912;4.388;2022-10-04T21:21:47;101759.44;;;23.44;44.24
21547;BME280;41275;51.912;4.388;2022-10-04T21:27:10;101750.63;;;23.39;44.32
21547;BME280;41275;51.912;4.388;2022-10-04T21:32:34;101756.94;;;23.29;44.63
21547;BME280;41275;51.912;4.388;2022-10-04T21:37:55;101751.03;;;23.27;44.57
21547;BME280;41275;51.912;4.388;2022-10-04T21:43:26;101741.91;;;23.23;44.84
21547;BME280;41275;51.912;4.388;2022-10-04T21:48:47;101720.13;;;23.14;45.16
21547;BME280;41275;51.912;4.388;2022-10-04T21:54:08;101730.88;;;23.19;45.32
21547;BME280;41275;51.912;4.388;2022-10-04T21:59:30;101717.72;;;23.13;45.81
21547;BME280;41275;51.912;4.388;2022-10-04T22:04:51;101720.88;;;23.20;45.91
21547;BME280;41275;51.912;4.388;2022-10-04T22:10:12;101711.44;;;23.17;46.21
21547;BME280;41275;51.912;4.388;2022-10-04T22:15:34;101711.53;;;23.12;46.08
21547;BME280;41275;51.912;4.388;2022-10-04T22:20:55;101705.09;;;23.08;45.99
21547;BME280;41275;51.912;4.388;2022-10-04T22:26:19;101697.28;;;23.07;46.23
21547;BME280;41275;51.912;4.388;2022-10-04T22:31:40;101698.94;;;23.02;46.22
21547;BME280;41275;51.912;4.388;2022-10-04T22:37:04;101695.16;;;23.03;46.24
21547;BME280;41275;51.912;4.388;2022-10-04T22:42:29;101695.44;;;23.02;46.24
21547;BME280;41275;51.912;4.388;2022-10-04T22:47:53;101692.16;;;23.05;46.13
21547;BME280;41275;51.912;4.388;2022-10-04T22:53:19;101697.34;;;23.01;46.23
21547;BME280;41275;51.912;4.388;2022-10-04T22:58:41;101708.13;;;23.01;46.21
21547;BME280;41275;51.912;4.388;2022-10-04T23:04:03;101684.19;;;22.95;46.07
21547;BME280;41275;51.912;4.388;2022-10-04T23:09:31;101682.00;;;22.97;45.92
21547;BME280;41275;51.912;4.388;2022-10-04T23:14:52;101689.31;;;22.96;45.93
21547;BME280;41275;51.912;4.388;2022-10-04T23:20:16;101695.81;;;22.90;45.96
21547;BME280;41275;51.912;4.388;2022-10-04T23:25:38;101676.94;;;22.90;45.64
21547;BME280;41275;51.912;4.388;2022-10-04T23:31:06;101675.59;;;22.93;45.62
21547;BME280;41275;51.912;4.388;2022-10-04T23:36:33;101687.19;;;22.93;45.41
21547;BME280;41275;51.912;4.388;2022-10-04T23:41:55;101687.19;;;22.93;45.37
21547;BME280;41275;51.912;4.388;2022-10-04T23:47:18;101685.00;;;22.95;45.12
21547;BME280;41275;51.912;4.388;2022-10-04T23:52:39;101685.81;;;22.96;44.78
21547;BME280;41275;51.912;4.388;2022-10-04T23:58:00;101686.09;;;22.94;44.75
